Time;durP1;ratioP1;P1;durP2;ratioP2;P2;SDS_P1;SDS_P2;PMS_P1;PMS_P2;Temp;Humidity;BMP_temperature;BMP_pressure;BME280_temperature;BME280_humidity;BME280_pressure;Samples;Min_cycle;Max_cycle;Signal;HPM_P1;HPM_P2
2023/01/11 00:01:02;;;;;;;11.98;4.53;;;;;;;;;;5019489;28;20059;-55
2023/01/11 00:03:28;;;;;;;11.57;4.50;;;;;;;;;;5001820;28;20405;-55
2023/01/11 00:05:54;;;;;;;14.60;4.63;;;;;;;;;;5024338;28;20076;-56
2023/01/11 00:08:20;;;;;;;12.10;4.57;;;;;;;;;;5018996;28;20057;-56
2023/01/11 00:10:46;;;;;;;13.70;4.90;;;;;;;;;;5017423;28;20041;-56
2023/01/11 00:13:11;;;;;;;12.40;4.70;;;;;;;;;;5020030;28;20041;-56
2023/01/11 00:15:37;;;;;;;9.23;4.20;;;;;;;;;;5013742;28;20027;-56
2023/01/11 00:18:02;;;;;;;12.60;4.47;;;;;;;;;;5016687;28;20026;-55
2023/01/11 00:20:28;;;;;;;10.48;4.03;;;;;;;;;;5009431;28;20014;-56
2023/01/11 00:22:53;;;;;;;13.93;4.63;;;;;;;;;;5019300;28;20017;-56
2023/01/11 00:25:18;;;;;;;9.47;4.07;;;;;;;;;;5009363;28;20471;-56
2023/01/11 00:27:43;;;;;;;10.32;4.00;;;;;;;;;;5002557;28;20035;-56
2023/01/11 00:30:08;;;;;;;10.03;3.70;;;;;;;;;;5013343;28;20053;-56
2023/01/11 00:32:33;;;;;;;12.27;4.35;;;;;;;;;;5013521;28;20106;-55
2023/01/11 00:34:59;;;;;;;11.93;3.53;;;;;;;;;;5018587;28;20044;-55
2023/01/11 00:37:24;;;;;;;8.18;3.50;;;;;;;;;;5016063;28;20053;-55
2023/01/11 00:39:50;;;;;;;10.77;3.35;;;;;;;;;;5024900;28;20717;-56
2023/01/11 00:47:55;;;;;;;8.48;3.08;;;;;;;;;;5002387;28;20037;-56
2023/01/11 00:50:21;;;;;;;10.10;2.80;;;;;;;;;;5008347;28;20029;-55
2023/01/11 00:52:46;;;;;;;11.13;2.97;;;;;;;;;;5006919;28;20021;-55
2023/01/11 00:55:11;;;;;;;9.50;2.70;;;;;;;;;;5009466;28;20096;-55
2023/01/11 00:57:36;;;;;;;6.97;2.45;;;;;;;;;;5005720;28;20381;-56
2023/01/11 01:00:02;;;;;;;8.43;2.90;;;;;;;;;;5004993;28;20026;-54
2023/01/11 01:02:28;;;;;;;10.80;3.40;;;;;;;;;;5008815;28;20113;-55
2023/01/11 01:04:54;;;;;;;9.13;2.45;;;;;;;;;;5006951;28;20061;-56
2023/01/11 01:07:19;;;;;;;7.72;2.30;;;;;;;;;;5007954;28;20088;-55
2023/01/11 01:09:44;;;;;;;6.82;2.72;;;;;;;;;;5010176;28;20151;-56
2023/01/11 01:12:09;;;;;;;10.45;2.53;;;;;;;;;;5008126;28;20045;-56
2023/01/11 01:14:34;;;;;;;10.52;2.53;;;;;;;;;;5006636;28;20014;-56
2023/01/11 01:17:05;;;;;;;7.43;2.40;;;;;;;;;;5009906;28;20494;-57
2023/01/11 01:19:32;;;;;;;7.68;2.47;;;;;;;;;;5006148;28;20030;-55
2023/01/11 01:21:58;;;;;;;9.10;2.92;;;;;;;;;;5009645;28;20386;-55
2023/01/11 01:24:23;;;;;;;8.48;2.67;;;;;;;;;;5007547;28;20036;-55
2023/01/11 01:26:48;;;;;;;10.90;2.63;;;;;;;;;;5008397;28;20038;-55
2023/01/11 01:29:14;;;;;;;8.10;2.25;;;;;;;;;;5008313;28;20131;-55
2023/01/11 01:31:39;;;;;;;9.75;2.40;;;;;;;;;;5009040;28;20048;-55
2023/01/11 01:34:05;;;;;;;12.80;2.60;;;;;;;;;;5022108;28;20026;-55
2023/01/11 01:36:30;;;;;;;8.88;2.35;;;;;;;;;;5020547;28;20100;-56
2023/01/11 01:38:57;;;;;;;6.43;2.37;;;;;;;;;;5013938;28;20056;-57
2023/01/11 01:41:22;;;;;;;10.02;2.75;;;;;;;;;;5017040;28;20510;-56
2023/01/11 01:43:58;;;;;;;6.70;2.53;;;;;;;;;;5013674;28;20013;-56
2023/01/11 01:46:26;;;;;;;6.93;2.28;;;;;;;;;;5008331;28;20036;-56
2023/01/11 01:48:53;;;;;;;11.10;3.20;;;;;;;;;;5001817;28;20285;-56
2023/01/11 01:51:22;;;;;;;10.32;2.95;;;;;;;;;;5007113;28;21678;-56
2023/01/11 01:53:48;;;;;;;9.02;2.80;;;;;;;;;;5006996;28;20160;-56
2023/01/11 01:56:14;;;;;;;;;;;;;;;;;;5006957;28;20033;-57
2023/01/11 01:58:42;;;;;;;12.07;3.03;;;;;;;;;;5009024;28;19916;-55
2023/01/11 02:03:51;;;;;;;8.73;3.17;;;;;;;;;;5002486;28;20037;-56
2023/01/11 02:06:17;;;;;;;10.25;3.03;;;;;;;;;;5008230;28;20025;-55
2023/01/11 02:08:45;;;;;;;10.00;3.60;;;;;;;;;;5008620;28;20065;-55
2023/01/11 02:11:28;;;;;;;10.50;2.92;;;;;;;;;;5004568;28;20018;-55
2023/01/11 02:13:54;;;;;;;9.88;3.00;;;;;;;;;;5002140;28;20049;-55
2023/01/11 02:16:19;;;;;;;9.30;2.67;;;;;;;;;;5008866;28;20498;-55
2023/01/11 02:18:44;;;;;;;8.03;2.97;;;;;;;;;;5004949;28;22228;-55
2023/01/11 02:21:22;;;;;;;8.27;2.93;;;;;;;;;;5008085;28;20029;-55
2023/01/11 02:24:05;;;;;;;12.65;2.85;;;;;;;;;;5004788;28;20443;-56
2023/01/11 02:26:46;;;;;;;9.30;2.80;;;;;;;;;;5009273;28;20022;-56
2023/01/11 02:29:23;;;;;;;10.80;3.25;;;;;;;;;;5008886;28;20015;-56
2023/01/11 02:32:00;;;;;;;11.45;2.80;;;;;;;;;;5007957;28;20030;-55
2023/01/11 02:34:30;;;;;;;10.55;2.67;;;;;;;;;;5002505;28;20030;-56
2023/01/11 02:37:13;;;;;;;9.18;3.03;;;;;;;;;;5009145;28;20072;-55
2023/01/11 02:39:54;;;;;;;10.38;3.08;;;;;;;;;;4995221;28;20112;-56
2023/01/11 02:45:21;;;;;;;8.07;2.90;;;;;;;;;;5004231;28;20112;-56
2023/01/11 02:48:00;;;;;;;9.55;2.88;;;;;;;;;;5006871;28;20471;-55
2023/01/11 02:50:41;;;;;;;9.77;3.17;;;;;;;;;;5011616;28;20039;-56
2023/01/11 02:53:28;;;;;;;12.95;2.90;;;;;;;;;;5012053;28;20041;-54
2023/01/11 02:55:55;;;;;;;9.20;2.90;;;;;;;;;;5005599;28;20030;-56
2023/01/11 02:58:23;;;;;;;8.30;3.08;;;;;;;;;;5012163;28;20029;-56
2023/01/11 03:00:49;;;;;;;11.77;3.05;;;;;;;;;;5010607;28;20148;-56
2023/01/11 03:03:18;;;;;;;6.53;2.58;;;;;;;;;;5010103;28;20194;-56
2023/01/11 03:05:46;;;;;;;10.77;2.60;;;;;;;;;;5012326;28;20026;-56
2023/01/11 03:08:33;;;;;;;12.63;2.88;;;;;;;;;;5010584;28;20064;-57
2023/01/11 03:11:03;;;;;;;8.00;2.60;;;;;;;;;;5009892;28;20040;-55
2023/01/11 03:13:38;;;;;;;10.60;2.85;;;;;;;;;;5009340;28;20014;-55
2023/01/11 03:16:19;;;;;;;8.90;2.63;;;;;;;;;;5008033;28;20112;-54
2023/01/11 03:19:03;;;;;;;9.65;2.78;;;;;;;;;;5013246;28;20018;-55
2023/01/11 03:21:51;;;;;;;10.93;2.70;;;;;;;;;;5010671;28;20029;-56
2023/01/11 03:24:17;;;;;;;7.90;2.90;;;;;;;;;;5011577;28;20088;-56
2023/01/11 03:26:54;;;;;;;6.88;2.65;;;;;;;;;;5012858;28;20037;-55
2023/01/11 03:29:19;;;;;;;10.10;2.70;;;;;;;;;;5012855;28;20105;-56
2023/01/11 03:31:53;;;;;;;6.60;2.20;;;;;;;;;;5020609;28;20050;-55
2023/01/11 03:34:27;;;;;;;8.98;2.78;;;;;;;;;;5011437;28;20037;-55
2023/01/11 03:37:06;;;;;;;8.50;2.60;;;;;;;;;;5013271;28;20034;-56
2023/01/11 03:39:34;;;;;;;9.63;2.22;;;;;;;;;;5014002;28;20471;-55
2023/01/11 03:42:02;;;;;;;8.02;2.20;;;;;;;;;;5014014;28;20028;-56
2023/01/11 03:44:30;;;;;;;8.05;2.60;;;;;;;;;;5013381;28;20041;-56
2023/01/11 03:46:58;;;;;;;8.93;2.40;;;;;;;;;;5011804;28;20099;-56
2023/01/11 03:49:32;;;;;;;9.32;2.30;;;;;;;;;;5011830;28;20021;-57
2023/01/11 03:51:58;;;;;;;7.60;2.20;;;;;;;;;;5006891;28;20018;-56
2023/01/11 03:54:24;;;;;;;;;;;;;;;;;;5004446;28;20061;-55
2023/01/11 03:57:10;;;;;;;7.40;2.20;;;;;;;;;;5007677;28;19957;-56
2023/01/11 03:59:35;;;;;;;7.47;2.20;;;;;;;;;;4998049;28;20021;-55
2023/01/11 04:02:01;;;;;;;7.23;1.90;;;;;;;;;;5010875;28;20024;-55
2023/01/11 04:04:26;;;;;;;7.72;2.58;;;;;;;;;;5005733;28;20563;-56
2023/01/11 04:06:51;;;;;;;9.13;2.42;;;;;;;;;;5006297;28;20080;-56
2023/01/11 04:09:17;;;;;;;10.73;2.50;;;;;;;;;;5007009;28;20029;-55
2023/01/11 04:11:42;;;;;;;7.87;2.40;;;;;;;;;;5009872;28;20106;-56
2023/01/11 04:14:07;;;;;;;7.50;2.15;;;;;;;;;;5009718;28;20583;-56
2023/01/11 04:16:32;;;;;;;7.88;2.20;;;;;;;;;;5011054;28;20360;-55
2023/01/11 04:18:57;;;;;;;7.27;2.03;;;;;;;;;;5018453;28;20026;-55
2023/01/11 04:21:22;;;;;;;8.65;2.47;;;;;;;;;;5006139;28;20026;-56
2023/01/11 04:23:48;;;;;;;8.93;2.40;;;;;;;;;;5008314;28;20112;-54
2023/01/11 04:26:13;;;;;;;9.03;2.33;;;;;;;;;;5007116;28;20885;-56
2023/01/11 04:28:38;;;;;;;6.88;2.05;;;;;;;;;;5008467;28;20036;-55
2023/01/11 04:31:03;;;;;;;8.10;2.40;;;;;;;;;;5010931;28;20456;-56
2023/01/11 04:33:29;;;;;;;8.40;2.20;;;;;;;;;;5008939;28;20038;-56
2023/01/11 04:35:54;;;;;;;8.35;2.08;;;;;;;;;;5008696;28;20028;-56
2023/01/11 04:38:22;;;;;;;8.68;2.20;;;;;;;;;;5008899;28;20022;-55
2023/01/11 04:40:48;;;;;;;9.98;2.03;;;;;;;;;;5012852;28;20087;-56
2023/01/11 04:43:13;;;;;;;8.80;2.00;;;;;;;;;;5014109;28;20030;-57
2023/01/11 04:45:38;;;;;;;7.40;2.08;;;;;;;;;;5018656;28;20076;-56
2023/01/11 04:48:03;;;;;;;7.00;2.50;;;;;;;;;;5024370;28;20040;-56
2023/01/11 04:50:28;;;;;;;8.83;2.60;;;;;;;;;;5021564;28;20498;-56
2023/01/11 04:52:53;;;;;;;8.32;2.22;;;;;;;;;;5014354;28;21426;-55
2023/01/11 04:55:19;;;;;;;7.53;2.00;;;;;;;;;;5009959;28;21794;-56
2023/01/11 04:57:44;;;;;;;9.57;2.15;;;;;;;;;;5009610;28;20026;-57
2023/01/11 05:00:10;;;;;;;6.88;2.03;;;;;;;;;;5012714;28;20021;-55
2023/01/11 05:02:35;;;;;;;8.50;2.22;;;;;;;;;;5013377;28;20022;-56
2023/01/11 05:05:01;;;;;;;10.52;2.63;;;;;;;;;;5010902;28;20033;-55
2023/01/11 05:07:26;;;;;;;10.30;2.17;;;;;;;;;;5010189;28;20036;-55
2023/01/11 05:09:51;;;;;;;8.07;2.17;;;;;;;;;;5008489;28;20101;-56
2023/01/11 05:12:16;;;;;;;8.93;1.98;;;;;;;;;;5007485;28;20029;-56
2023/01/11 05:14:41;;;;;;;7.47;2.03;;;;;;;;;;5009098;28;20037;-55
2023/01/11 05:17:11;;;;;;;10.17;2.73;;;;;;;;;;5007811;28;20064;-56
2023/01/11 05:19:36;;;;;;;5.47;2.00;;;;;;;;;;5006566;28;20013;-56
2023/01/11 05:22:01;;;;;;;7.90;2.07;;;;;;;;;;5007081;28;20378;-55
2023/01/11 05:24:26;;;;;;;9.55;2.30;;;;;;;;;;5008099;28;20096;-56
2023/01/11 05:26:52;;;;;;;8.82;2.67;;;;;;;;;;5006707;28;20069;-56
2023/01/11 05:29:19;;;;;;;7.10;1.92;;;;;;;;;;5006206;28;20042;-55
2023/01/11 05:31:44;;;;;;;10.65;2.08;;;;;;;;;;5007787;28;20040;-55
2023/01/11 05:34:11;;;;;;;7.17;2.17;;;;;;;;;;5013828;23;20144;-52
2023/01/11 05:36:36;;;;;;;7.53;1.80;;;;;;;;;;4998165;28;20027;-49
2023/01/11 05:39:01;;;;;;;5.53;2.00;;;;;;;;;;5008191;28;20502;-50
2023/01/11 05:41:27;;;;;;;7.43;2.13;;;;;;;;;;5003770;28;20025;-50
2023/01/11 05:46:38;;;;;;;7.38;2.30;;;;;;;;;;4996422;28;20647;-50
2023/01/11 05:49:03;;;;;;;8.68;2.15;;;;;;;;;;5003330;28;20030;-49
2023/01/11 05:51:29;;;;;;;7.97;1.90;;;;;;;;;;4996778;28;20031;-49
2023/01/11 05:53:55;;;;;;;10.73;2.22;;;;;;;;;;5004989;28;20036;-49
2023/01/11 05:56:20;;;;;;;8.98;2.33;;;;;;;;;;4995727;28;20424;-49
2023/01/11 05:58:49;;;;;;;8.13;2.17;;;;;;;;;;4997164;28;20037;-49
2023/01/11 06:01:14;;;;;;;8.75;2.08;;;;;;;;;;4995168;28;20487;-50
2023/01/11 06:03:40;;;;;;;9.00;2.10;;;;;;;;;;5000174;28;20124;-49
2023/01/11 06:06:05;;;;;;;9.98;2.30;;;;;;;;;;5004167;28;20024;-49
2023/01/11 06:08:30;;;;;;;8.37;2.10;;;;;;;;;;4999016;28;20050;-48
2023/01/11 06:10:55;;;;;;;7.47;2.00;;;;;;;;;;5002267;28;20042;-50
2023/01/11 06:13:27;;;;;;;6.80;2.22;;;;;;;;;;5003332;28;20033;-49
2023/01/11 06:15:59;;;;;;;9.85;2.28;;;;;;;;;;4997699;28;20571;-50
2023/01/11 06:18:24;;;;;;;9.57;2.03;;;;;;;;;;5007156;28;20430;-51
2023/01/11 06:20:49;;;;;;;7.97;2.17;;;;;;;;;;5002341;28;20030;-56
2023/01/11 06:23:15;;;;;;;8.77;2.42;;;;;;;;;;5004907;28;20029;-51
2023/01/11 06:25:40;;;;;;;8.13;2.30;;;;;;;;;;5006167;28;20026;-52
2023/01/11 06:28:05;;;;;;;7.97;2.55;;;;;;;;;;5009117;28;20450;-56
2023/01/11 06:30:30;;;;;;;9.33;2.27;;;;;;;;;;5025810;28;20017;-52
2023/01/11 06:33:04;;;;;;;8.47;1.97;;;;;;;;;;5034326;28;20029;-50
2023/01/11 06:35:29;;;;;;;7.80;2.00;;;;;;;;;;5033836;28;20037;-49
2023/01/11 06:37:54;;;;;;;7.38;1.98;;;;;;;;;;5034077;28;20024;-59
2023/01/11 06:40:19;;;;;;;8.15;2.30;;;;;;;;;;5031912;28;20087;-51
2023/01/11 06:42:44;;;;;;;8.98;2.22;;;;;;;;;;5029703;28;20434;-51
2023/01/11 06:45:10;;;;;;;12.83;2.73;;;;;;;;;;5029716;28;20018;-51
2023/01/11 06:47:35;;;;;;;7.30;2.20;;;;;;;;;;5031722;28;20041;-56
2023/01/11 06:50:00;;;;;;;7.97;2.15;;;;;;;;;;5031627;28;20029;-51
2023/01/11 06:52:25;;;;;;;7.57;1.83;;;;;;;;;;5027720;28;20455;-56
2023/01/11 06:54:50;;;;;;;6.80;2.30;;;;;;;;;;5023323;28;20025;-51
2023/01/11 06:57:15;;;;;;;6.63;2.07;;;;;;;;;;5030347;28;20065;-59
2023/01/11 06:59:42;;;;;;;8.13;2.25;;;;;;;;;;5032931;28;20021;-50
2023/01/11 07:02:07;;;;;;;5.93;1.85;;;;;;;;;;5031423;28;20025;-59
2023/01/11 07:04:33;;;;;;;9.30;2.20;;;;;;;;;;5022210;28;20025;-54
2023/01/11 07:06:58;;;;;;;6.50;2.10;;;;;;;;;;5018915;28;20037;-50
2023/01/11 07:09:24;;;;;;;8.30;2.03;;;;;;;;;;5023503;28;20049;-51
2023/01/11 07:11:49;;;;;;;7.90;1.88;;;;;;;;;;5032681;28;20025;-52
2023/01/11 07:14:18;;;;;;;6.15;2.22;;;;;;;;;;5027295;28;20029;-51
2023/01/11 07:16:44;;;;;;;6.72;2.20;;;;;;;;;;5021202;28;20079;-54
2023/01/11 07:19:09;;;;;;;6.40;2.00;;;;;;;;;;5028677;28;20541;-52
2023/01/11 07:21:34;;;;;;;6.05;2.00;;;;;;;;;;5019574;28;20033;-54
2023/01/11 07:24:00;;;;;;;6.70;2.20;;;;;;;;;;5028751;28;20018;-50
2023/01/11 07:26:27;;;;;;;7.30;2.13;;;;;;;;;;5032261;28;20033;-52
2023/01/11 07:28:52;;;;;;;;;;;;;;;;;;5025074;28;20026;-50
2023/01/11 07:31:17;;;;;;;9.07;2.13;;;;;;;;;;5022010;28;19909;-56
2023/01/11 07:33:42;;;;;;;6.13;2.28;;;;;;;;;;5027562;28;20093;-50
2023/01/11 07:36:07;;;;;;;6.38;2.00;;;;;;;;;;5030394;28;20025;-58
2023/01/11 07:38:32;;;;;;;6.25;2.08;;;;;;;;;;5025217;28;20048;-50
2023/01/11 07:40:57;;;;;;;8.40;2.40;;;;;;;;;;5027849;28;20014;-53
2023/01/11 07:43:23;;;;;;;11.63;2.50;;;;;;;;;;5020598;28;20056;-51
2023/01/11 07:45:50;;;;;;;7.22;2.10;;;;;;;;;;5027922;28;20079;-53
2023/01/11 07:48:19;;;;;;;6.50;1.95;;;;;;;;;;5031561;28;20107;-59
2023/01/11 07:50:44;;;;;;;7.70;2.22;;;;;;;;;;5023946;28;20037;-55
2023/01/11 07:53:09;;;;;;;6.57;2.20;;;;;;;;;;5024786;28;20038;-51
2023/01/11 07:55:35;;;;;;;6.63;2.20;;;;;;;;;;5044142;28;20028;-54
2023/01/11 07:58:01;;;;;;;9.23;2.33;;;;;;;;;;5052392;28;20450;-49
2023/01/11 08:00:27;;;;;;;11.18;3.47;;;;;;;;;;5052188;28;20024;-59
2023/01/11 08:02:52;;;;;;;11.10;3.55;;;;;;;;;;5052889;28;20027;-51
2023/01/11 08:05:18;;;;;;;11.13;2.45;;;;;;;;;;5051998;28;20017;-59
2023/01/11 08:07:43;;;;;;;8.80;3.17;;;;;;;;;;5040316;28;20033;-51
2023/01/11 08:10:09;;;;;;;9.43;3.07;;;;;;;;;;5042737;28;20033;-51
2023/01/11 08:15:18;;;;;;;11.32;3.83;;;;;;;;;;5051750;28;20067;-50
2023/01/11 08:17:43;;;;;;;12.55;3.45;;;;;;;;;;5051588;28;20053;-54
2023/01/11 08:20:08;;;;;;;8.80;2.90;;;;;;;;;;5051708;28;20463;-49
2023/01/11 08:22:34;;;;;;;5.60;1.65;;;;;;;;;;5051829;28;20035;-50
2023/01/11 08:24:59;;;;;;;4.53;1.60;;;;;;;;;;5032217;28;20111;-49
2023/01/11 08:27:24;;;;;;;8.00;2.72;;;;;;;;;;5042242;28;20049;-50
2023/01/11 08:29:49;;;;;;;8.32;2.72;;;;;;;;;;5051794;28;20446;-50
2023/01/11 08:32:14;;;;;;;8.95;2.47;;;;;;;;;;5051689;28;20086;-49
2023/01/11 08:34:39;;;;;;;10.23;2.83;;;;;;;;;;5051189;28;20031;-50
2023/01/11 08:37:04;;;;;;;6.67;1.77;;;;;;;;;;5049167;28;20516;-49
2023/01/11 08:39:30;;;;;;;7.27;2.00;;;;;;;;;;5033277;28;20017;-50
2023/01/11 08:41:56;;;;;;;8.50;2.00;;;;;;;;;;5051675;28;20025;-50
2023/01/11 08:44:21;;;;;;;6.80;2.00;;;;;;;;;;5033753;28;20051;-49
2023/01/11 08:46:46;;;;;;;5.57;1.60;;;;;;;;;;5051238;28;20501;-50
2023/01/11 08:49:11;;;;;;;6.43;1.83;;;;;;;;;;5052067;28;20063;-50
2023/01/11 08:51:37;;;;;;;8.57;2.20;;;;;;;;;;5049776;28;20009;-49
2023/01/11 08:54:03;;;;;;;7.82;1.90;;;;;;;;;;5043034;28;20158;-50
2023/01/11 08:56:28;;;;;;;5.73;1.97;;;;;;;;;;5050958;28;20029;-50
2023/01/11 08:58:53;;;;;;;6.93;1.90;;;;;;;;;;5050118;28;20455;-48
2023/01/11 09:01:18;;;;;;;7.47;1.95;;;;;;;;;;5051865;28;20017;-48
2023/01/11 09:03:43;;;;;;;9.40;2.30;;;;;;;;;;5051465;28;20496;-52
2023/01/11 09:06:08;;;;;;;8.13;2.40;;;;;;;;;;5051104;28;20028;-55
2023/01/11 09:08:34;;;;;;;7.37;1.90;;;;;;;;;;5036229;28;20037;-52
2023/01/11 09:10:59;;;;;;;6.97;2.20;;;;;;;;;;5043345;28;20028;-54
2023/01/11 09:13:25;;;;;;;6.47;2.22;;;;;;;;;;5051071;28;20078;-51
2023/01/11 09:15:53;;;;;;;7.00;2.10;;;;;;;;;;5050311;28;20017;-50
2023/01/11 09:18:18;;;;;;;6.03;2.22;;;;;;;;;;5050793;28;20025;-50
2023/01/11 09:20:43;;;;;;;6.15;2.15;;;;;;;;;;5050747;28;20013;-51
2023/01/11 09:23:09;;;;;;;6.45;2.03;;;;;;;;;;5050505;28;20033;-48
2023/01/11 09:25:34;;;;;;;6.10;2.55;;;;;;;;;;5038531;28;20431;-49
2023/01/11 09:27:59;;;;;;;5.93;2.10;;;;;;;;;;5046639;28;20060;-49
2023/01/11 09:30:24;;;;;;;5.82;2.10;;;;;;;;;;5050809;28;20040;-49
2023/01/11 09:32:50;;;;;;;5.40;1.75;;;;;;;;;;5050520;28;20021;-49
2023/01/11 09:35:16;;;;;;;7.68;2.08;;;;;;;;;;5050577;28;20025;-49
2023/01/11 09:37:47;;;;;;;8.93;2.08;;;;;;;;;;5036514;28;20106;-50
2023/01/11 09:40:18;;;;;;;5.18;1.77;;;;;;;;;;5039921;28;20155;-48
2023/01/11 09:42:45;;;;;;;6.95;1.95;;;;;;;;;;5050948;28;20114;-48
2023/01/11 09:45:11;;;;;;;5.40;1.90;;;;;;;;;;5050114;28;20021;-49
2023/01/11 09:47:40;;;;;;;4.60;1.70;;;;;;;;;;5050088;28;20051;-48
2023/01/11 09:50:23;;;;;;;6.65;2.00;;;;;;;;;;5050259;28;20470;-49
2023/01/11 09:52:51;;;;;;;5.50;1.95;;;;;;;;;;5044067;28;20017;-50
2023/01/11 09:55:24;;;;;;;8.57;2.20;;;;;;;;;;5041770;28;20036;-50
2023/01/11 09:58:07;;;;;;;5.72;1.85;;;;;;;;;;5050144;28;20021;-50
2023/01/11 10:00:49;;;;;;;5.43;1.92;;;;;;;;;;5054890;28;20067;-49
2023/01/11 10:03:27;;;;;;;7.68;2.00;;;;;;;;;;5054772;28;20017;-49
2023/01/11 10:05:54;;;;;;;;;;;;;;;;;;5050772;28;20047;-48
2023/01/11 10:08:39;;;;;;;5.43;1.80;;;;;;;;;;5045571;28;19928;-50
2023/01/11 10:11:19;;;;;;;5.93;2.10;;;;;;;;;;5050827;28;20021;-50
2023/01/11 10:14:03;;;;;;;4.95;1.95;;;;;;;;;;5054327;28;20100;-51
2023/01/11 10:16:34;;;;;;;5.53;2.00;;;;;;;;;;5053854;28;20024;-50
2023/01/11 10:19:22;;;;;;;6.00;2.20;;;;;;;;;;5054757;28;20107;-51
2023/01/11 10:21:52;;;;;;;6.22;2.30;;;;;;;;;;5051088;28;20028;-50
2023/01/11 10:24:21;;;;;;;5.70;2.53;;;;;;;;;;5043740;28;20018;-50
2023/01/11 10:26:48;;;;;;;6.47;2.33;;;;;;;;;;5053922;28;20489;-50
2023/01/11 10:31:49;;;;;;;5.85;2.40;;;;;;;;;;5054350;28;20412;-51
2023/01/11 10:37:33;;;;;;;7.43;2.05;;;;;;;;;;5041625;28;20544;-50
2023/01/11 10:42:47;;;;;;;5.65;2.15;;;;;;;;;;5014584;28;20033;-50
2023/01/11 10:45:17;;;;;;;9.77;2.13;;;;;;;;;;5013854;28;20396;-51
2023/01/11 10:47:55;;;;;;;5.55;2.03;;;;;;;;;;5013900;28;20367;-50
2023/01/11 10:50:31;;;;;;;4.60;1.70;;;;;;;;;;5034534;28;20025;-50
2023/01/11 10:53:04;;;;;;;5.63;1.77;;;;;;;;;;5049596;28;20056;-52
2023/01/11 10:55:32;;;;;;;4.85;1.90;;;;;;;;;;5049223;28;20029;-49
2023/01/11 10:58:07;;;;;;;5.20;1.80;;;;;;;;;;5041903;28;20213;-49
2023/01/11 11:00:53;;;;;;;5.30;1.77;;;;;;;;;;5013768;28;20440;-48
2023/01/11 11:03:18;;;;;;;6.65;1.90;;;;;;;;;;5013909;28;20018;-49
2023/01/11 11:05:46;;;;;;;3.80;1.70;;;;;;;;;;5013417;28;20032;-49
2023/01/11 11:08:25;;;;;;;5.63;2.10;;;;;;;;;;5013678;28;20033;-49
2023/01/11 11:10:57;;;;;;;5.53;2.08;;;;;;;;;;5032576;28;20489;-48
2023/01/11 11:13:30;;;;;;;4.93;2.10;;;;;;;;;;5045190;28;20021;-48
2023/01/11 11:16:02;;;;;;;4.70;2.10;;;;;;;;;;5054143;28;20021;-49
2023/01/11 11:18:27;;;;;;;4.57;2.00;;;;;;;;;;5056250;28;20028;-50
2023/01/11 11:20:52;;;;;;;4.68;2.10;;;;;;;;;;5053471;28;20032;-50
2023/01/11 11:23:20;;;;;;;5.13;1.87;;;;;;;;;;5053188;28;20099;-50
2023/01/11 11:25:48;;;;;;;5.50;2.03;;;;;;;;;;5047381;28;20051;-50
2023/01/11 11:28:14;;;;;;;5.32;2.42;;;;;;;;;;5042227;28;20406;-49
2023/01/11 11:30:42;;;;;;;5.63;2.10;;;;;;;;;;5052917;28;20447;-49
2023/01/11 11:35:55;;;;;;;5.10;2.20;;;;;;;;;;5047475;23;20132;-56
2023/01/11 11:38:22;;;;;;;5.97;2.00;;;;;;;;;;5032852;28;20026;-56
2023/01/11 11:40:55;;;;;;;4.68;2.20;;;;;;;;;;5032669;28;20025;-55
2023/01/11 11:43:25;;;;;;;5.45;2.25;;;;;;;;;;5033548;28;20056;-58
2023/01/11 11:45:54;;;;;;;6.28;2.58;;;;;;;;;;5037374;28;20447;-56
2023/01/11 11:48:20;;;;;;;6.68;2.30;;;;;;;;;;5032345;28;20064;-58
2023/01/11 11:50:45;;;;;;;5.50;2.38;;;;;;;;;;5032762;28;20037;-56
2023/01/11 11:53:19;;;;;;;4.28;1.98;;;;;;;;;;5032530;28;20025;-56
2023/01/11 11:55:44;;;;;;;4.85;2.20;;;;;;;;;;5033646;28;20020;-55
2023/01/11 11:58:11;;;;;;;6.32;2.30;;;;;;;;;;5040467;28;20024;-54
2023/01/11 12:00:43;;;;;;;6.35;2.63;;;;;;;;;;5031436;28;20434;-55
2023/01/11 12:03:14;;;;;;;5.57;2.60;;;;;;;;;;5032920;28;20056;-55
2023/01/11 12:06:00;;;;;;;5.53;2.55;;;;;;;;;;5039953;28;20540;-57
2023/01/11 12:08:25;;;;;;;4.70;1.98;;;;;;;;;;5032124;28;20037;-54
2023/01/11 12:10:56;;;;;;;7.70;2.60;;;;;;;;;;5032152;28;20020;-56
2023/01/11 12:13:34;;;;;;;5.45;2.60;;;;;;;;;;5031958;28;20079;-56
2023/01/11 12:16:01;;;;;;;6.28;2.53;;;;;;;;;;5032023;28;20092;-55
2023/01/11 12:18:31;;;;;;;5.95;2.30;;;;;;;;;;5033761;28;20541;-56
2023/01/11 12:21:07;;;;;;;5.90;2.63;;;;;;;;;;5035416;28;20030;-56
2023/01/11 12:23:32;;;;;;;7.45;2.70;;;;;;;;;;5027745;28;20489;-55
2023/01/11 12:26:03;;;;;;;4.70;2.20;;;;;;;;;;5051121;28;20025;-55
2023/01/11 12:28:51;;;;;;;4.80;2.40;;;;;;;;;;5051515;28;20119;-56
2023/01/11 12:31:24;;;;;;;5.95;2.53;;;;;;;;;;5051583;28;20020;-55
2023/01/11 12:34:02;;;;;;;6.55;2.60;;;;;;;;;;5035913;28;20029;-55
2023/01/11 12:36:28;;;;;;;7.03;2.47;;;;;;;;;;5039097;28;20117;-55
2023/01/11 12:38:53;;;;;;;5.00;2.25;;;;;;;;;;5032169;28;20045;-56
2023/01/11 12:42:02;;;;;;;4.72;2.20;;;;;;;;;;5031638;28;20489;-55
2023/01/11 12:44:38;;;;;;;5.70;2.30;;;;;;;;;;5027480;28;20042;-55
2023/01/11 12:47:04;;;;;;;5.68;2.50;;;;;;;;;;5030371;28;20040;-54
2023/01/11 12:49:32;;;;;;;6.60;2.00;;;;;;;;;;5027696;28;20021;-55
2023/01/11 12:52:15;;;;;;;5.15;2.42;;;;;;;;;;5038579;28;20017;-56
2023/01/11 12:54:41;;;;;;;5.82;2.53;;;;;;;;;;5011537;28;20032;-55
2023/01/11 12:57:17;;;;;;;5.05;2.50;;;;;;;;;;5011112;28;20097;-56
2023/01/11 13:00:01;;;;;;;5.05;2.20;;;;;;;;;;5011891;28;20028;-56
2023/01/11 13:02:45;;;;;;;5.07;2.30;;;;;;;;;;5014164;28;20431;-56
2023/01/11 13:05:15;;;;;;;5.80;2.28;;;;;;;;;;5040036;28;20013;-55
2023/01/11 13:07:59;;;;;;;6.53;2.20;;;;;;;;;;5050209;28;20045;-56
2023/01/11 13:10:32;;;;;;;4.85;2.00;;;;;;;;;;5033202;28;20056;-56
2023/01/11 13:13:00;;;;;;;5.43;2.20;;;;;;;;;;5030898;28;20013;-56
2023/01/11 13:15:34;;;;;;;7.35;2.15;;;;;;;;;;5030372;28;20032;-55
2023/01/11 13:18:18;;;;;;;5.75;2.33;;;;;;;;;;5030643;28;20510;-56
2023/01/11 13:20:46;;;;;;;6.70;2.33;;;;;;;;;;5033442;28;20025;-54
2023/01/11 13:23:13;;;;;;;6.47;2.17;;;;;;;;;;5033326;28;20021;-56
2023/01/11 13:25:41;;;;;;;6.78;2.47;;;;;;;;;;5030332;28;20052;-57
2023/01/11 13:28:26;;;;;;;5.25;2.22;;;;;;;;;;5025841;28;20056;-56
2023/01/11 13:30:52;;;;;;;5.88;2.47;;;;;;;;;;5031584;28;20032;-55
2023/01/11 13:33:19;;;;;;;6.30;2.30;;;;;;;;;;5029553;28;20108;-55
2023/01/11 13:35:48;;;;;;;7.45;2.42;;;;;;;;;;5030270;28;20048;-55
2023/01/11 13:38:32;;;;;;;5.80;2.00;;;;;;;;;;5030561;28;20025;-56
2023/01/11 13:41:08;;;;;;;4.40;2.10;;;;;;;;;;5030407;28;20029;-56
2023/01/11 13:43:43;;;;;;;5.57;1.90;;;;;;;;;;5030781;28;20374;-56
2023/01/11 13:46:14;;;;;;;6.57;1.98;;;;;;;;;;5029601;28;20014;-55
2023/01/11 13:48:41;;;;;;;4.28;1.80;;;;;;;;;;5030983;28;20053;-54
2023/01/11 13:51:27;;;;;;;4.75;1.90;;;;;;;;;;5029944;28;20565;-55
2023/01/11 13:53:57;;;;;;;4.10;1.80;;;;;;;;;;5030173;28;20376;-55
2023/01/11 13:56:34;;;;;;;4.38;1.90;;;;;;;;;;5029969;28;20777;-55
2023/01/11 13:59:03;;;;;;;5.75;1.98;;;;;;;;;;5028426;28;20115;-55
2023/01/11 14:01:38;;;;;;;5.28;1.95;;;;;;;;;;5025265;28;20025;-55
2023/01/11 14:04:24;;;;;;;5.22;2.25;;;;;;;;;;5037960;28;20546;-54
2023/01/11 14:06:58;;;;;;;4.60;2.20;;;;;;;;;;5036891;28;20121;-55
2023/01/11 14:09:26;;;;;;;5.20;2.28;;;;;;;;;;5038237;28;20033;-56
2023/01/11 14:12:10;;;;;;;7.55;2.30;;;;;;;;;;5030306;28;20116;-55
2023/01/11 14:14:43;;;;;;;5.32;2.35;;;;;;;;;;5030225;28;20022;-55
2023/01/11 14:17:31;;;;;;;6.35;2.22;;;;;;;;;;5028326;28;20029;-54
2023/01/11 14:20:05;;;;;;;4.60;2.08;;;;;;;;;;5050015;28;20025;-56
2023/01/11 14:22:49;;;;;;;5.47;2.20;;;;;;;;;;5049771;28;20024;-56
2023/01/11 14:25:31;;;;;;;5.32;2.20;;;;;;;;;;5050194;28;20032;-56
2023/01/11 14:28:34;;;;;;;5.30;2.05;;;;;;;;;;5049609;28;20044;-55
2023/01/11 14:31:15;;;;;;;5.55;2.05;;;;;;;;;;4966656;28;20109;-55
2023/01/11 14:33:46;;;;;;;6.13;2.22;;;;;;;;;;4942282;29;20027;-56
2023/01/11 14:36:14;;;;;;;5.07;2.40;;;;;;;;;;4996598;28;20402;-55
2023/01/11 14:38:52;;;;;;;6.43;2.75;;;;;;;;;;5029906;28;20025;-54
2023/01/11 14:41:36;;;;;;;4.50;2.17;;;;;;;;;;5029170;28;20034;-56
2023/01/11 14:44:27;;;;;;;6.03;2.45;;;;;;;;;;5029433;28;20018;-55
2023/01/11 14:47:10;;;;;;;5.60;2.65;;;;;;;;;;5033777;28;20033;-56
2023/01/11 14:49:56;;;;;;;5.03;2.20;;;;;;;;;;5032819;28;20459;-56
2023/01/11 14:52:25;;;;;;;4.97;2.35;;;;;;;;;;5052508;28;20153;-55
2023/01/11 14:54:51;;;;;;;4.70;2.15;;;;;;;;;;5053181;28;20092;-56
2023/01/11 14:57:39;;;;;;;5.07;2.20;;;;;;;;;;5036518;28;20049;-55
2023/01/11 15:00:24;;;;;;;4.30;2.10;;;;;;;;;;5032318;28;20039;-56
2023/01/11 15:02:50;;;;;;;5.13;2.28;;;;;;;;;;5028026;28;20104;-57
2023/01/11 15:05:31;;;;;;;4.45;1.95;;;;;;;;;;5033351;28;20021;-54
2023/01/11 15:08:09;;;;;;;4.72;2.20;;;;;;;;;;5033431;28;20076;-56
2023/01/11 15:10:34;;;;;;;5.10;2.50;;;;;;;;;;5036682;28;20025;-56
2023/01/11 15:13:03;;;;;;;5.10;2.30;;;;;;;;;;5037992;28;20019;-54
2023/01/11 15:18:16;;;;;;;5.40;2.63;;;;;;;;;;5032991;28;20047;-56
2023/01/11 15:18:18;;;;;;;5.57;2.55;;;;;;;;;;5033497;28;20474;-55
2023/01/11 15:20:52;;;;;;;5.68;2.35;;;;;;;;;;5033138;28;20022;-56
2023/01/11 15:23:18;;;;;;;5.88;2.50;;;;;;;;;;5032340;28;20529;-56
2023/01/11 15:25:45;;;;;;;5.03;2.63;;;;;;;;;;5040763;28;20009;-56